Time;durP1;ratioP1;P1;durP2;ratioP2;P2;SDS_P1;SDS_P2;PMS_P1;PMS_P2;Temp;Humidity;BMP_temperature;BMP_pressure;BME280_temperature;BME280_humidity;BME280_pressure;Samples;Min_cycle;Max_cycle;Signal;HPM_P1;HPM_P2
2021/04/30 00:00:58;;;;;;;10.53;8.13;;;3.10;99.90;;;;;;5033632;28;20209;-63
2021/04/30 00:03:26;;;;;;;9.20;7.73;;;3.10;99.90;;;;;;5031476;28;20201;-63
2021/04/30 00:05:53;;;;;;;10.23;7.43;;;3.00;99.90;;;;;;5035036;28;20196;-63
2021/04/30 00:08:20;;;;;;;11.97;7.90;;;3.00;99.90;;;;;;5038156;28;20306;-63
2021/04/30 00:10:49;;;;;;;13.17;8.90;;;2.90;99.90;;;;;;5039323;28;20197;-63
2021/04/30 00:13:16;;;;;;;13.20;8.70;;;2.90;99.90;;;;;;5031317;28;20185;-63
2021/04/30 00:15:45;;;;;;;13.07;8.93;;;2.90;99.90;;;;;;5031120;28;20183;-63
2021/04/30 00:18:13;;;;;;;14.67;8.30;;;3.00;99.90;;;;;;5030712;28;20222;-63
2021/04/30 00:20:50;;;;;;;10.63;8.43;;;3.10;99.90;;;;;;5051967;28;20186;-62
2021/04/30 00:23:18;;;;;;;17.47;8.83;;;3.10;99.90;;;;;;5030868;28;20302;-63
2021/04/30 00:25:46;;;;;;;12.17;8.70;;;3.00;99.90;;;;;;5033701;28;20453;-63
2021/04/30 00:28:14;;;;;;;15.37;9.23;;;3.00;99.90;;;;;;5039020;28;20185;-63
2021/04/30 00:30:42;;;;;;;13.23;8.43;;;2.90;99.90;;;;;;5037425;28;20189;-62
2021/04/30 00:33:10;;;;;;;10.73;8.63;;;2.80;99.90;;;;;;5036735;28;20181;-63
2021/04/30 00:35:37;;;;;;;12.07;8.40;;;2.70;99.90;;;;;;5040581;28;20185;-63
2021/04/30 00:38:05;;;;;;;15.73;8.50;;;2.70;99.90;;;;;;5036398;28;20181;-63
2021/04/30 00:40:32;;;;;;;19.00;10.20;;;2.70;99.90;;;;;;5032020;28;20217;-63
2021/04/30 00:43:00;;;;;;;20.73;10.43;;;2.60;99.90;;;;;;5036017;28;20174;-62
2021/04/30 00:45:28;;;;;;;18.40;9.87;;;2.60;99.90;;;;;;5048325;28;20186;-63
2021/04/30 00:47:56;;;;;;;15.07;10.37;;;2.50;99.90;;;;;;5039706;28;20181;-63
2021/04/30 00:50:25;;;;;;;13.10;9.50;;;2.40;99.90;;;;;;5039231;28;20205;-63
2021/04/30 00:52:52;;;;;;;15.70;9.67;;;2.40;99.90;;;;;;5039803;28;20194;-63
2021/04/30 00:55:22;;;;;;;18.37;10.80;;;2.30;99.90;;;;;;5041246;28;20189;-63
2021/04/30 00:57:54;;;;;;;15.73;11.30;;;2.30;99.90;;;;;;5042866;28;20205;-63
2021/04/30 01:00:23;;;;;;;21.80;11.70;;;2.30;99.90;;;;;;5035606;28;20189;-62
2021/04/30 01:02:55;;;;;;;17.33;11.27;;;2.30;99.90;;;;;;5041904;28;20240;-63
2021/04/30 01:05:41;;;;;;;23.00;11.87;;;2.30;99.90;;;;;;5042243;28;20197;-63
2021/04/30 01:08:08;;;;;;;25.03;11.77;;;2.20;99.90;;;;;;5038631;28;20310;-62
2021/04/30 01:10:36;;;;;;;17.97;11.77;;;2.20;99.90;;;;;;5038798;28;20209;-63
2021/04/30 01:13:03;;;;;;;18.07;12.03;;;2.20;99.90;;;;;;5036664;28;20202;-62
2021/04/30 01:15:31;;;;;;;14.87;11.73;;;2.20;99.90;;;;;;5033171;28;20182;-62
2021/04/30 01:18:01;;;;;;;17.77;12.03;;;2.20;99.90;;;;;;5053400;28;20217;-63
2021/04/30 01:20:28;;;;;;;20.83;12.53;;;2.20;99.90;;;;;;5041039;28;20185;-63
2021/04/30 01:22:56;;;;;;;21.30;12.40;;;2.20;99.90;;;;;;5030595;28;20209;-63
2021/04/30 01:25:25;;;;;;;17.83;12.20;;;2.20;99.90;;;;;;5034008;28;20193;-63
2021/04/30 01:27:54;;;;;;;24.77;12.63;;;2.20;99.90;;;;;;5038150;28;20667;-63
2021/04/30 01:30:23;;;;;;;20.70;13.40;;;2.20;99.90;;;;;;5039328;28;20178;-63
2021/04/30 01:32:51;;;;;;;19.80;12.40;;;2.20;99.90;;;;;;5037994;28;20280;-62
2021/04/30 01:35:19;;;;;;;21.80;14.10;;;2.20;99.90;;;;;;5033133;28;20177;-63
2021/04/30 01:37:48;;;;;;;19.40;13.73;;;2.30;99.90;;;;;;5028389;28;20198;-63
2021/04/30 01:40:19;;;;;;;17.57;13.20;;;2.30;99.90;;;;;;5041649;28;20185;-63
2021/04/30 01:43:05;;;;;;;21.97;13.53;;;2.30;99.90;;;;;;5042044;28;20201;-63
2021/04/30 01:45:35;;;;;;;24.30;13.33;;;2.30;99.90;;;;;;5035632;28;20178;-62
2021/04/30 01:48:04;;;;;;;18.43;12.77;;;2.20;99.90;;;;;;5034465;28;20239;-63
2021/04/30 01:50:31;;;;;;;19.37;12.50;;;2.10;99.90;;;;;;5042224;28;20239;-62
2021/04/30 01:52:59;;;;;;;19.17;12.37;;;2.00;99.90;;;;;;5039243;28;20193;-62
2021/04/30 01:55:29;;;;;;;20.17;12.33;;;2.00;99.90;;;;;;5036223;28;20186;-62
2021/04/30 01:57:56;;;;;;;21.43;12.83;;;1.90;99.90;;;;;;5037537;28;20413;-62
2021/04/30 02:00:26;;;;;;;18.87;12.70;;;1.90;99.90;;;;;;5035204;28;20236;-63
2021/04/30 02:03:00;;;;;;;24.07;13.20;;;1.90;99.90;;;;;;5034386;28;20217;-62
2021/04/30 02:05:31;;;;;;;24.43;13.13;;;1.80;99.90;;;;;;5030620;28;20229;-62
2021/04/30 02:08:01;;;;;;;23.37;14.10;;;1.80;99.90;;;;;;5040066;28;20213;-62
2021/04/30 02:10:30;;;;;;;18.00;13.13;;;1.80;99.90;;;;;;5032467;28;20197;-63
2021/04/30 02:13:00;;;;;;;23.97;14.67;;;1.80;99.90;;;;;;5036702;28;20189;-62
2021/04/30 02:15:29;;;;;;;22.17;13.73;;;1.80;99.90;;;;;;5053697;28;20433;-62
2021/04/30 02:17:57;;;;;;;25.57;16.20;;;1.80;99.90;;;;;;5040315;28;20217;-62
2021/04/30 02:20:25;;;;;;;25.67;15.93;;;1.90;99.90;;;;;;5037860;28;20182;-62
2021/04/30 02:22:53;;;;;;;27.90;15.87;;;1.80;99.90;;;;;;5051581;28;20225;-62
2021/04/30 02:25:22;;;;;;;25.43;15.30;;;1.80;99.90;;;;;;5031699;28;20185;-63
2021/04/30 02:27:52;;;;;;;27.33;16.40;;;1.80;99.90;;;;;;5033657;28;20181;-63
2021/04/30 02:30:21;;;;;;;25.97;16.30;;;1.80;99.90;;;;;;5030067;28;20448;-62
2021/04/30 02:32:49;;;;;;;27.93;16.97;;;1.80;99.90;;;;;;5040784;28;20181;-62
2021/04/30 02:35:19;;;;;;;31.70;17.53;;;1.80;99.90;;;;;;5037082;28;20182;-62
2021/04/30 02:37:47;;;;;;;27.57;17.23;;;1.80;99.90;;;;;;5033986;28;20406;-63
2021/04/30 02:40:23;;;;;;;29.33;17.63;;;1.80;99.90;;;;;;5029672;28;20180;-60
2021/04/30 02:42:52;;;;;;;32.17;18.30;;;1.80;99.90;;;;;;5040418;28;20212;-62
2021/04/30 02:45:19;;;;;;;27.90;18.50;;;1.80;99.90;;;;;;5032515;28;20189;-62
2021/04/30 02:47:48;;;;;;;33.53;18.37;;;1.90;99.90;;;;;;5030954;28;20426;-62
2021/04/30 02:50:17;;;;;;;33.80;18.60;;;1.90;99.90;;;;;;5037341;28;20232;-62
2021/04/30 02:52:45;;;;;;;32.63;19.47;;;1.90;99.90;;;;;;5041364;28;20182;-62
2021/04/30 02:55:14;;;;;;;32.57;18.47;;;1.90;99.90;;;;;;5033619;28;20209;-62
2021/04/30 02:57:41;;;;;;;30.40;17.50;;;1.80;99.90;;;;;;5034043;28;20201;-62
2021/04/30 03:00:12;;;;;;;34.27;18.53;;;1.70;99.90;;;;;;5036715;28;20181;-62
2021/04/30 03:02:41;;;;;;;33.43;18.63;;;1.70;99.90;;;;;;5040371;28;20228;-63
2021/04/30 03:05:10;;;;;;;28.83;18.13;;;1.70;99.90;;;;;;5029726;28;20307;-62
2021/04/30 03:08:15;;;;;;;28.57;18.80;;;1.70;99.90;;;;;;5032119;28;20212;-62
2021/04/30 03:10:42;;;;;;;32.47;18.60;;;1.80;99.90;;;;;;5034254;28;20177;-62
2021/04/30 03:13:10;;;;;;;32.23;19.80;;;1.80;99.90;;;;;;5039436;28;20239;-62
2021/04/30 03:15:38;;;;;;;32.80;19.70;;;1.90;99.90;;;;;;5030472;28;20240;-62
2021/04/30 03:18:06;;;;;;;29.20;18.47;;;1.90;99.90;;;;;;5029029;28;20222;-62
2021/04/30 03:20:33;;;;;;;27.90;17.50;;;1.90;99.90;;;;;;5031621;28;20308;-62
2021/04/30 03:23:00;;;;;;;27.33;17.40;;;1.80;99.90;;;;;;5032440;28;20209;-62
2021/04/30 03:25:34;;;;;;;29.43;18.67;;;1.70;99.90;;;;;;5040167;28;20221;-62
2021/04/30 03:28:02;;;;;;;33.70;19.73;;;1.80;99.90;;;;;;5034477;28;20194;-63
2021/04/30 03:30:30;;;;;;;34.13;19.10;;;1.70;99.90;;;;;;5039605;28;20182;-62
2021/04/30 03:32:58;;;;;;;33.37;18.67;;;1.60;99.90;;;;;;5031690;28;20178;-63
2021/04/30 03:35:26;;;;;;;29.70;17.47;;;1.50;99.90;;;;;;5025898;28;20185;-62
2021/04/30 03:37:53;;;;;;;31.63;18.03;;;1.40;99.90;;;;;;5036706;28;20264;-62
2021/04/30 03:40:21;;;;;;;28.07;17.93;;;1.40;99.90;;;;;;5041354;28;20194;-62
2021/04/30 03:42:48;;;;;;;31.50;18.60;;;1.40;99.90;;;;;;5034610;28;20442;-62
2021/04/30 03:45:15;;;;;;;32.43;18.20;;;1.30;99.90;;;;;;5030914;28;20178;-62
2021/04/30 03:47:43;;;;;;;27.13;18.03;;;1.30;99.90;;;;;;5035525;28;20256;-62
2021/04/30 03:50:12;;;;;;;29.43;19.23;;;1.30;99.90;;;;;;5036504;28;20185;-62
2021/04/30 03:52:39;;;;;;;37.03;21.33;;;1.30;99.90;;;;;;5035720;28;20201;-62
2021/04/30 03:55:08;;;;;;;37.43;20.30;;;1.30;99.90;;;;;;5040075;28;20192;-62
2021/04/30 03:57:35;;;;;;;30.60;19.40;;;1.30;99.90;;;;;;5034058;28;20182;-62
2021/04/30 04:00:04;;;;;;;35.87;19.87;;;1.20;99.90;;;;;;5036102;28;20181;-62
2021/04/30 04:02:34;;;;;;;37.23;19.87;;;1.20;99.90;;;;;;5017159;28;20290;-62
2021/04/30 04:05:21;;;;;;;34.17;20.07;;;1.20;99.90;;;;;;5034918;28;20383;-62
2021/04/30 04:08:14;;;;;;;32.97;19.37;;;1.20;99.90;;;;;;5027734;28;20228;-62
2021/04/30 04:10:42;;;;;;;27.87;18.07;;;1.10;99.90;;;;;;5030147;28;20181;-62
2021/04/30 04:13:16;;;;;;;36.80;19.57;;;1.10;99.90;;;;;;5035886;28;20181;-62
2021/04/30 04:15:44;;;;;;;33.23;19.57;;;1.10;99.90;;;;;;5034338;28;20196;-62
2021/04/30 04:18:12;;;;;;;34.00;20.93;;;1.10;99.90;;;;;;5029784;28;20241;-62
2021/04/30 04:20:41;;;;;;;41.60;22.33;;;1.20;99.90;;;;;;5042370;28;20235;-62
2021/04/30 04:23:08;;;;;;;41.13;23.73;;;1.30;99.90;;;;;;5037635;28;20210;-62
2021/04/30 04:25:37;;;;;;;37.00;23.00;;;1.40;99.90;;;;;;5043014;28;20220;-62
2021/04/30 04:28:05;;;;;;;42.63;24.57;;;1.40;99.90;;;;;;5039476;28;20185;-62
2021/04/30 04:30:32;;;;;;;58.77;26.63;;;1.50;99.90;;;;;;5040174;28;20196;-62
2021/04/30 04:33:00;;;;;;;48.40;25.93;;;1.60;99.90;;;;;;5044077;28;20177;-62
2021/04/30 04:35:28;;;;;;;43.00;25.03;;;1.60;99.90;;;;;;5037457;28;20185;-62
2021/04/30 04:37:56;;;;;;;46.60;25.00;;;1.60;99.90;;;;;;5033096;28;20235;-62
2021/04/30 04:40:25;;;;;;;44.43;25.37;;;1.60;99.90;;;;;;5038559;28;20201;-62
2021/04/30 04:42:53;;;;;;;43.83;24.97;;;1.60;99.90;;;;;;5037873;28;20256;-62
2021/04/30 04:45:21;;;;;;;50.03;25.60;;;1.60;99.90;;;;;;5035491;28;20341;-62
2021/04/30 04:47:48;;;;;;;50.23;26.73;;;1.70;99.90;;;;;;5033970;28;20178;-62
2021/04/30 04:50:17;;;;;;;50.03;27.33;;;1.70;99.90;;;;;;5037715;28;20189;-62
2021/04/30 04:52:45;;;;;;;48.03;26.63;;;1.80;99.90;;;;;;5037408;28;20205;-62
2021/04/30 04:55:16;;;;;;;52.57;28.60;;;1.90;99.90;;;;;;5042650;28;20182;-62
2021/04/30 04:57:44;;;;;;;51.57;29.17;;;1.90;99.90;;;;;;5029820;28;20476;-62
2021/04/30 05:00:13;;;;;;;53.90;28.97;;;2.00;99.90;;;;;;5038077;28;20181;-62
2021/04/30 05:02:40;;;;;;;51.50;29.07;;;2.10;99.90;;;;;;5039857;28;20241;-63
2021/04/30 05:05:09;;;;;;;50.57;28.27;;;2.10;99.90;;;;;;5042905;28;20197;-62
2021/04/30 05:07:37;;;;;;;49.47;28.23;;;2.20;99.90;;;;;;5034094;28;20198;-62
2021/04/30 05:10:05;;;;;;;46.63;27.87;;;2.30;99.90;;;;;;5038373;28;20193;-63
2021/04/30 05:12:33;;;;;;;53.37;30.17;;;2.40;99.90;;;;;;5034591;28;20314;-62
2021/04/30 05:15:00;;;;;;;47.30;26.83;;;2.40;99.90;;;;;;5039239;28;20341;-63
2021/04/30 05:17:27;;;;;;;44.93;27.57;;;2.50;99.90;;;;;;5034888;28;20288;-63
2021/04/30 05:19:55;;;;;;;48.70;26.10;;;2.60;99.90;;;;;;5032000;28;20281;-63
2021/04/30 05:22:22;;;;;;;49.57;27.10;;;2.80;99.90;;;;;;5044441;28;20217;-63
2021/04/30 05:24:49;;;;;;;48.67;27.30;;;2.90;99.90;;;;;;5036761;28;20173;-63
2021/04/30 05:27:17;;;;;;;43.43;26.90;;;3.10;99.90;;;;;;5044277;28;20212;-63
2021/04/30 05:29:45;;;;;;;42.10;26.13;;;3.30;99.90;;;;;;5033104;28;20213;-63
2021/04/30 05:32:13;;;;;;;42.17;24.57;;;3.40;99.90;;;;;;5036213;28;20238;-63
2021/04/30 05:34:42;;;;;;;49.00;25.83;;;3.60;99.90;;;;;;5042263;28;20235;-63
2021/04/30 05:37:09;;;;;;;35.70;23.57;;;3.80;99.90;;;;;;5036678;28;20185;-63
2021/04/30 05:39:36;;;;;;;36.83;22.80;;;3.90;99.90;;;;;;5042277;28;20208;-63
2021/04/30 05:42:04;;;;;;;41.77;23.67;;;4.10;99.90;;;;;;5042879;28;20209;-63
2021/04/30 05:44:33;;;;;;;36.77;21.47;;;4.30;99.90;;;;;;5043156;28;20410;-63
2021/04/30 05:47:01;;;;;;;32.63;20.30;;;4.50;99.90;;;;;;5040938;28;20353;-63
2021/04/30 05:49:29;;;;;;;32.10;20.10;;;4.60;99.90;;;;;;5043444;28;20363;-63
2021/04/30 05:51:56;;;;;;;30.43;19.07;;;4.70;99.90;;;;;;5043094;28;20205;-63
2021/04/30 05:54:23;;;;;;;34.13;20.17;;;4.80;99.90;;;;;;5042112;28;20366;-64
2021/04/30 05:56:50;;;;;;;33.43;20.03;;;4.80;99.90;;;;;;5039461;28;20185;-63
2021/04/30 05:59:18;;;;;;;35.20;19.83;;;5.00;99.90;;;;;;5045264;28;20189;-63
2021/04/30 06:01:45;;;;;;;28.10;19.60;;;5.10;99.90;;;;;;5044968;28;20213;-64
2021/04/30 06:04:13;;;;;;;31.87;19.97;;;5.20;99.90;;;;;;5044206;28;20173;-63
2021/04/30 06:06:41;;;;;;;32.30;18.50;;;5.30;99.90;;;;;;5038637;28;20192;-63
2021/04/30 06:09:08;;;;;;;26.03;18.00;;;5.40;99.90;;;;;;5025798;28;20190;-63
2021/04/30 06:11:35;;;;;;;25.20;16.93;;;5.50;99.90;;;;;;5040264;28;20181;-63
2021/04/30 06:14:03;;;;;;;30.77;16.63;;;5.70;99.90;;;;;;5038491;28;20182;-64
2021/04/30 06:16:30;;;;;;;27.20;17.10;;;6.00;99.90;;;;;;5041055;28;20192;-63
2021/04/30 06:18:58;;;;;;;24.50;16.13;;;6.10;99.90;;;;;;5037742;28;20230;-63
2021/04/30 06:21:26;;;;;;;24.80;16.03;;;6.40;99.90;;;;;;5037778;28;20381;-63
2021/04/30 06:23:53;;;;;;;25.37;15.97;;;6.60;99.90;;;;;;5025950;28;20205;-63
2021/04/30 06:26:21;;;;;;;23.67;14.60;;;6.80;99.90;;;;;;5033299;28;20228;-64
2021/04/30 06:28:48;;;;;;;23.37;16.13;;;7.00;99.90;;;;;;5031969;28;20310;-64
2021/04/30 06:31:15;;;;;;;27.10;16.33;;;7.10;99.90;;;;;;5045712;28;20232;-63
2021/04/30 06:33:43;;;;;;;22.13;15.43;;;7.00;99.90;;;;;;5042603;28;20205;-63
2021/04/30 06:36:11;;;;;;;21.17;15.20;;;7.00;99.90;;;;;;5041703;28;20193;-63
2021/04/30 06:38:39;;;;;;;23.37;15.03;;;7.10;99.90;;;;;;5043890;28;20326;-64
2021/04/30 06:41:07;;;;;;;25.73;14.50;;;7.10;99.90;;;;;;5032896;28;20254;-63
2021/04/30 06:43:34;;;;;;;20.93;14.97;;;7.40;99.90;;;;;;5038329;28;20225;-64
2021/04/30 06:46:02;;;;;;;26.00;15.07;;;7.50;99.90;;;;;;5039878;28;20189;-64
2021/04/30 06:48:29;;;;;;;25.20;13.97;;;7.70;99.90;;;;;;5043034;28;20192;-64
2021/04/30 06:50:56;;;;;;;20.67;12.80;;;7.70;99.90;;;;;;5029242;28;20182;-63
2021/04/30 06:53:24;;;;;;;22.30;13.47;;;7.70;99.90;;;;;;5025500;28;20193;-63
2021/04/30 06:55:52;;;;;;;22.60;13.33;;;7.60;99.90;;;;;;5030099;28;20224;-63
2021/04/30 06:58:19;;;;;;;20.83;13.43;;;7.70;99.90;;;;;;5030524;28;20229;-64
2021/04/30 07:00:46;;;;;;;22.90;13.60;;;7.90;99.90;;;;;;5037153;28;20190;-64
2021/04/30 07:03:14;;;;;;;18.73;13.20;;;8.40;99.90;;;;;;5054574;28;20217;-63
2021/04/30 07:05:58;;;;;;;20.00;13.13;;;9.10;99.90;;;;;;5041447;28;20215;-64
2021/04/30 07:08:25;;;;;;;23.30;14.27;;;9.70;99.90;;;;;;5033283;28;20177;-64
2021/04/30 07:10:53;;;;;;;19.37;11.87;;;10.10;99.90;;;;;;5026889;28;20228;-64
2021/04/30 07:13:20;;;;;;;19.53;13.57;;;10.10;99.90;;;;;;5032543;28;20205;-64
2021/04/30 07:15:48;;;;;;;24.87;15.77;;;10.20;99.90;;;;;;5039785;28;20181;-64
2021/04/30 07:18:15;;;;;;;18.47;12.83;;;10.50;99.90;;;;;;5042721;28;20219;-64
2021/04/30 07:20:45;;;;;;;20.97;12.27;;;10.80;99.90;;;;;;5033992;28;20177;-64
2021/04/30 07:23:13;;;;;;;12.07;10.10;;;11.00;99.90;;;;;;5036231;28;20244;-64
2021/04/30 07:25:40;;;;;;;15.90;10.67;;;11.50;99.90;;;;;;5026444;28;20193;-64
2021/04/30 07:28:08;;;;;;;18.77;10.60;;;11.50;99.90;;;;;;5036757;28;20223;-64
2021/04/30 07:30:36;;;;;;;15.30;10.37;;;11.40;99.90;;;;;;5040343;28;20205;-64
2021/04/30 07:33:05;;;;;;;20.20;12.33;;;11.70;99.90;;;;;;5040860;28;20247;-64
2021/04/30 07:35:40;;;;;;;16.47;10.67;;;12.00;99.90;;;;;;5031371;28;20189;-65
2021/04/30 07:38:09;;;;;;;15.30;11.03;;;12.50;99.90;;;;;;5037252;28;20174;-65
2021/04/30 07:40:39;;;;;;;18.23;10.50;;;12.90;99.90;;;;;;5028571;28;20197;-64
2021/04/30 07:43:08;;;;;;;16.93;9.47;;;13.20;99.90;;;;;;5037835;28;20470;-65
2021/04/30 07:45:38;;;;;;;17.03;9.97;;;13.60;99.90;;;;;;5038336;28;20189;-62
2021/04/30 07:48:08;;;;;;;14.70;10.00;;;13.90;99.90;;;;;;5038140;28;20402;-62
2021/04/30 07:50:38;;;;;;;12.30;8.70;;;14.10;99.90;;;;;;5037976;28;20185;-63
2021/04/30 07:53:06;;;;;;;19.43;8.70;;;14.30;99.90;;;;;;5031962;28;20174;-63
2021/04/30 07:55:33;;;;;;;16.57;8.97;;;14.60;99.90;;;;;;5029185;28;20240;-62
2021/04/30 07:58:01;;;;;;;14.97;8.17;;;14.80;99.90;;;;;;5041788;28;20299;-62
2021/04/30 08:00:30;;;;;;;12.90;8.57;;;14.70;99.90;;;;;;5036158;28;20186;-62
2021/04/30 08:02:58;;;;;;;12.17;7.10;;;14.90;99.90;;;;;;5038326;28;20213;-62
2021/04/30 08:05:26;;;;;;;9.10;6.73;;;15.20;99.90;;;;;;5037015;28;20185;-62
2021/04/30 08:07:54;;;;;;;11.70;7.53;;;15.60;99.90;;;;;;5028894;28;20190;-63
2021/04/30 08:10:21;;;;;;;12.27;6.30;;;15.80;99.90;;;;;;5031868;28;20185;-63
2021/04/30 08:12:49;;;;;;;10.50;6.60;;;16.30;99.90;;;;;;5041866;28;20205;-65
2021/04/30 08:15:16;;;;;;;12.17;7.70;;;15.80;99.90;;;;;;5034342;28;20189;-65
2021/04/30 08:17:45;;;;;;;12.70;7.47;;;15.80;99.90;;;;;;5029043;28;20217;-62
2021/04/30 08:20:13;;;;;;;14.50;6.80;;;15.90;99.90;;;;;;5031625;28;20189;-64
2021/04/30 08:22:40;;;;;;;13.63;6.73;;;15.40;99.90;;;;;;5032304;28;20322;-65
2021/04/30 08:25:09;;;;;;;14.73;8.30;;;14.40;99.90;;;;;;5043588;28;20205;-65
2021/04/30 08:27:36;;;;;;;15.23;8.03;;;13.60;99.90;;;;;;5037048;28;20186;-65
2021/04/30 08:30:05;;;;;;;10.77;6.97;;;13.60;99.90;;;;;;5035757;28;20208;-65
2021/04/30 08:32:33;;;;;;;13.30;7.00;;;14.50;99.90;;;;;;5032891;28;20182;-62
2021/04/30 08:35:02;;;;;;;8.27;6.43;;;15.60;99.90;;;;;;5036269;28;20177;-63
2021/04/30 08:37:29;;;;;;;10.63;6.10;;;16.10;99.90;;;;;;5030748;28;20185;-63
2021/04/30 08:40:00;;;;;;;10.27;6.63;;;16.70;99.90;;;;;;5037925;28;20185;-63
2021/04/30 08:42:29;;;;;;;9.77;6.07;;;17.60;99.90;;;;;;5033913;28;20209;-63
2021/04/30 08:44:56;;;;;;;7.33;6.27;;;18.00;99.90;;;;;;5023770;28;20188;-63
2021/04/30 08:47:24;;;;;;;14.13;6.83;;;18.50;99.90;;;;;;5052367;28;20307;-63
2021/04/30 08:49:55;;;;;;;13.20;7.67;;;17.70;99.90;;;;;;5035370;28;20194;-63
2021/04/30 08:52:23;;;;;;;11.77;7.20;;;16.60;99.90;;;;;;5037773;28;20204;-65
2021/04/30 08:54:54;;;;;;;10.23;7.80;;;15.70;99.90;;;;;;5035082;28;20186;-65
2021/04/30 08:57:25;;;;;;;10.43;8.03;;;15.00;99.90;;;;;;5038797;28;20184;-65
2021/04/30 08:59:57;;;;;;;12.13;7.77;;;14.70;99.90;;;;;;5042680;28;20177;-65
2021/04/30 09:02:25;;;;;;;12.63;9.17;;;14.30;99.90;;;;;;5039140;28;20221;-65
2021/04/30 09:04:53;;;;;;;13.77;8.77;;;14.00;99.90;;;;;;5042985;28;20220;-65
2021/04/30 09:07:24;;;;;;;13.40;9.53;;;13.60;99.90;;;;;;5027765;28;20236;-64
2021/04/30 09:10:05;;;;;;;10.30;7.93;;;13.40;99.90;;;;;;5029496;28;20287;-65
2021/04/30 09:12:33;;;;;;;15.17;8.60;;;14.40;99.90;;;;;;5045131;28;20188;-65
2021/04/30 09:15:00;;;;;;;11.87;8.67;;;14.90;99.90;;;;;;5041859;28;20183;-64
2021/04/30 09:17:28;;;;;;;10.90;8.50;;;14.50;99.90;;;;;;5042490;28;20221;-65
2021/04/30 09:19:59;;;;;;;15.03;9.00;;;14.10;99.90;;;;;;5031806;28;20205;-65
2021/04/30 09:22:29;;;;;;;14.00;9.00;;;13.60;99.90;;;;;;5028141;28;20217;-65
2021/04/30 09:24:59;;;;;;;15.60;8.90;;;13.30;99.90;;;;;;5032125;28;20249;-65
2021/04/30 09:27:35;;;;;;;11.77;9.47;;;13.20;99.90;;;;;;5035099;28;20414;-65
2021/04/30 09:30:21;;;;;;;14.63;9.87;;;13.10;99.90;;;;;;5045464;28;20414;-65
2021/04/30 09:33:07;;;;;;;17.63;10.07;;;13.00;99.90;;;;;;5041130;28;20189;-65
2021/04/30 09:35:36;;;;;;;16.00;9.63;;;13.00;99.90;;;;;;5037769;28;20206;-65
2021/04/30 09:38:18;;;;;;;12.67;8.80;;;12.90;99.90;;;;;;5040068;28;20198;-64
2021/04/30 09:40:49;;;;;;;17.20;9.23;;;12.80;99.90;;;;;;5041731;28;20189;-65
2021/04/30 09:43:19;;;;;;;15.07;9.37;;;12.80;99.90;;;;;;5029552;28;20232;-64
2021/04/30 09:45:48;;;;;;;13.83;9.43;;;12.60;99.90;;;;;;5036157;28;20269;-65
2021/04/30 09:48:16;;;;;;;15.13;9.20;;;12.60;99.90;;;;;;5039714;28;20177;-65
2021/04/30 09:50:45;;;;;;;15.93;8.73;;;12.70;99.90;;;;;;5043291;28;20189;-64
2021/04/30 09:53:17;;;;;;;12.17;8.90;;;12.80;99.90;;;;;;5037603;28;20189;-64
2021/04/30 09:55:46;;;;;;;12.97;8.43;;;12.80;99.90;;;;;;5039876;28;20201;-64
2021/04/30 09:58:16;;;;;;;14.13;8.60;;;13.00;99.90;;;;;;5037377;28;20193;-64
2021/04/30 10:00:46;;;;;;;10.90;8.60;;;13.30;99.90;;;;;;5034786;28;20239;-65
2021/04/30 10:03:16;;;;;;;15.00;8.50;;;13.80;99.90;;;;;;5035651;28;20233;-65
2021/04/30 10:06:01;;;;;;;10.67;7.43;;;15.10;99.90;;;;;;5031165;28;20193;-65
2021/04/30 10:08:29;;;;;;;7.53;6.77;;;17.00;99.90;;;;;;5036786;28;20189;-63
2021/04/30 10:10:57;;;;;;;10.03;7.27;;;18.40;99.90;;;;;;5026303;28;20193;-63
2021/04/30 10:13:38;;;;;;;9.33;6.70;;;19.00;99.90;;;;;;5028683;28;20179;-63
2021/04/30 10:16:07;;;;;;;8.00;6.43;;;19.60;99.90;;;;;;5032980;28;20302;-63
2021/04/30 10:18:35;;;;;;;8.93;6.67;;;19.70;98.40;;;;;;5043196;28;20243;-63
2021/04/30 10:21:03;;;;;;;8.13;6.33;;;20.00;97.60;;;;;;5037063;28;20193;-63
2021/04/30 10:23:32;;;;;;;10.03;6.80;;;20.20;98.40;;;;;;5042458;28;20211;-63
2021/04/30 10:26:02;;;;;;;8.67;6.83;;;19.10;96.40;;;;;;5041433;28;20190;-63
2021/04/30 10:28:31;;;;;;;10.00;6.90;;;18.40;98.10;;;;;;5034356;28;20189;-62
2021/04/30 10:31:02;;;;;;;7.83;6.90;;;18.20;99.00;;;;;;5034446;28;20188;-62
2021/04/30 10:33:37;;;;;;;7.57;6.80;;;18.30;97.80;;;;;;5036409;28;20184;-62
2021/04/30 10:36:13;;;;;;;10.87;7.43;;;18.50;98.40;;;;;;5039532;28;20243;-64
2021/04/30 10:38:45;;;;;;;10.33;7.40;;;19.30;99.70;;;;;;5042215;28;20203;-63
2021/04/30 10:41:13;;;;;;;11.00;7.37;;;20.40;96.80;;;;;;5055631;28;20188;-63
2021/04/30 10:43:41;;;;;;;8.63;6.10;;;20.30;94.30;;;;;;5041592;28;20219;-63
2021/04/30 10:46:22;;;;;;;6.93;6.27;;;19.40;94.40;;;;;;5039380;28;20338;-63
2021/04/30 10:49:17;;;;;;;10.13;7.20;;;18.10;95.10;;;;;;5041928;28;20387;-65
2021/04/30 10:52:16;;;;;;;11.93;8.17;;;16.90;96.30;;;;;;5034685;28;20189;-65
2021/04/30 10:54:45;;;;;;;14.03;7.90;;;15.90;98.50;;;;;;5034493;28;20314;-65
2021/04/30 10:57:19;;;;;;;9.97;7.53;;;15.40;99.00;;;;;;5037481;28;20189;-65
2021/04/30 10:59:50;;;;;;;10.90;7.77;;;15.10;99.90;;;;;;5036229;28;20396;-64
2021/04/30 11:02:26;;;;;;;9.23;7.43;;;15.00;99.90;;;;;;5040113;28;20193;-65
2021/04/30 11:05:17;;;;;;;8.27;7.30;;;14.60;99.90;;;;;;5031600;28;20178;-65
2021/04/30 11:07:47;;;;;;;16.17;7.53;;;14.30;99.90;;;;;;5043113;28;20201;-65
2021/04/30 11:10:39;;;;;;;9.70;7.43;;;14.40;99.90;;;;;;5038582;28;20232;-64
2021/04/30 11:13:15;;;;;;;11.37;7.40;;;14.40;99.90;;;;;;5032764;28;20178;-65
2021/04/30 11:15:58;;;;;;;9.33;7.30;;;14.40;99.90;;;;;;5034225;28;20185;-64
2021/04/30 11:18:27;;;;;;;9.43;7.53;;;14.30;99.90;;;;;;5040764;28;20454;-64
2021/04/30 11:21:05;;;;;;;12.33;7.20;;;13.90;99.90;;;;;;5041505;28;20216;-65
2021/04/30 11:23:41;;;;;;;9.23;7.53;;;13.80;99.90;;;;;;5032585;28;20213;-65
2021/04/30 11:26:13;;;;;;;10.03;7.87;;;13.70;99.90;;;;;;5042098;28;20251;-64
2021/04/30 11:29:07;;;;;;;12.07;7.77;;;13.70;99.90;;;;;;5047843;28;20373;-64
2021/04/30 11:31:37;;;;;;;10.43;6.83;;;13.70;99.90;;;;;;5037977;28;20547;-64
2021/04/30 11:34:21;;;;;;;10.50;6.33;;;13.60;99.90;;;;;;5038804;28;20209;-64
2021/04/30 11:36:55;;;;;;;11.43;6.10;;;13.40;99.90;;;;;;5032626;28;20185;-64
2021/04/30 11:39:41;;;;;;;9.47;5.23;;;13.00;99.90;;;;;;5042075;28;20193;-65
2021/04/30 11:42:11;;;;;;;10.57;6.37;;;12.80;99.90;;;;;;5028596;28;20193;-64
2021/04/30 11:44:39;;;;;;;8.37;5.83;;;12.60;99.90;;;;;;5036141;28;20214;-64
2021/04/30 11:47:07;;;;;;;7.00;5.77;;;12.40;99.90;;;;;;5043655;28;20178;-64
2021/04/30 11:49:38;;;;;;;7.80;5.60;;;12.30;99.90;;;;;;5033924;28;20486;-64
2021/04/30 11:52:08;;;;;;;7.57;5.70;;;12.40;99.90;;;;;;5034387;28;20267;-64
2021/04/30 11:54:37;;;;;;;11.20;6.40;;;12.30;99.90;;;;;;5031129;28;20204;-64
2021/04/30 11:57:07;;;;;;;7.57;6.27;;;12.20;99.90;;;;;;5036790;28;20181;-64
2021/04/30 11:59:37;;;;;;;11.43;6.50;;;12.00;99.90;;;;;;5029550;28;20253;-65
2021/04/30 12:02:26;;;;;;;9.63;6.20;;;11.90;99.90;;;;;;5029359;28;20213;-64
2021/04/30 12:04:54;;;;;;;15.07;7.23;;;11.90;99.90;;;;;;5038687;28;20181;-64
2021/04/30 12:07:34;;;;;;;8.43;5.97;;;12.00;99.90;;;;;;5045660;28;20410;-64
2021/04/30 12:10:04;;;;;;;10.47;6.10;;;12.00;99.90;;;;;;5040327;28;20232;-64
2021/04/30 12:12:33;;;;;;;10.07;6.50;;;12.00;99.90;;;;;;5029155;28;20205;-64
2021/04/30 12:15:02;;;;;;;6.60;5.57;;;11.90;99.90;;;;;;5032829;28;20182;-64
2021/04/30 12:17:32;;;;;;;7.40;5.93;;;11.80;99.90;;;;;;5034623;28;20475;-64
2021/04/30 12:20:08;;;;;;;16.33;6.10;;;11.80;99.90;;;;;;5026509;28;20182;-64
2021/04/30 12:22:44;;;;;;;10.37;6.43;;;11.80;99.90;;;;;;5026223;28;20209;-64
2021/04/30 12:25:27;;;;;;;6.87;5.73;;;11.90;99.90;;;;;;5027646;28;20189;-64
2021/04/30 12:28:14;;;;;;;10.83;6.50;;;11.80;99.90;;;;;;5027697;28;20174;-63
2021/04/30 12:30:43;;;;;;;8.80;6.40;;;11.90;99.90;;;;;;5039021;28;20193;-63
2021/04/30 12:33:23;;;;;;;18.30;7.03;;;11.80;99.90;;;;;;5034357;28;20185;-63
2021/04/30 12:35:53;;;;;;;9.33;6.97;;;11.80;99.90;;;;;;5029609;28;20430;-63
2021/04/30 12:38:23;;;;;;;13.97;7.80;;;11.70;99.90;;;;;;5039009;28;20189;-63
2021/04/30 12:40:50;;;;;;;13.23;7.23;;;11.70;99.90;;;;;;5039239;28;20186;-63
2021/04/30 12:43:26;;;;;;;14.10;7.80;;;11.70;99.90;;;;;;5042290;28;20221;-63
2021/04/30 12:45:54;;;;;;;13.47;7.00;;;11.80;99.90;;;;;;5035067;28;20185;-63
2021/04/30 12:48:26;;;;;;;9.57;6.70;;;11.80;99.90;;;;;;5039811;28;20190;-63
2021/04/30 12:50:56;;;;;;;8.87;7.00;;;11.80;99.90;;;;;;5030562;28;20190;-63
2021/04/30 12:53:27;;;;;;;16.67;7.77;;;11.80;99.90;;;;;;5034447;28;20272;-63